createdAt,value
2018-06-20T18:47:04.845Z,50.11
2018-06-20T18:49:33.052Z,50.07
2018-06-20T18:52:01.213Z,50.20
2018-06-20T18:54:29.375Z,51.20
2018-06-20T18:56:57.732Z,51.06
2018-06-20T18:59:31.070Z,51.76
2018-06-20T19:02:04.553Z,52.26
2018-06-20T19:04:38.188Z,53.08
2018-06-20T19:07:11.774Z,54.06
2018-06-20T19:09:40.132Z,53.60
2018-06-20T19:12:08.444Z,53.65
2018-06-20T19:14:36.587Z,53.00
2018-06-20T19:17:05.340Z,53.21
2018-06-20T19:19:33.456Z,53.93
2018-06-20T19:22:01.500Z,53.79
2018-06-20T19:24:29.433Z,54.22
2018-06-20T19:26:57.638Z,54.01
2018-06-20T19:29:25.637Z,54.33
2018-06-20T19:31:53.743Z,54.10
2018-06-20T19:34:22.038Z,53.86
2018-06-20T19:36:52.208Z,53.11
2018-06-20T19:39:54.153Z,53.26
2018-06-20T19:42:24.765Z,53.34
2018-06-20T19:44:52.944Z,52.99
2018-06-20T19:47:21.509Z,53.50
2018-06-20T19:49:49.583Z,53.84
2018-06-20T19:52:18.302Z,53.55
2018-06-20T19:54:46.418Z,53.39
2018-06-20T19:57:15.558Z,53.02
2018-06-20T19:59:43.613Z,53.05
2018-06-20T20:02:11.690Z,53.52
2018-06-20T20:04:39.861Z,53.50
2018-06-20T20:07:08.117Z,53.67
2018-06-20T20:09:36.927Z,53.22
2018-06-20T20:12:04.924Z,52.45
2018-06-20T20:14:32.939Z,52.99
2018-06-20T20:17:01.550Z,51.95
2018-06-20T20:19:29.612Z,52.22
2018-06-20T20:21:57.668Z,52.06
2018-06-20T20:24:26.079Z,52.32
2018-06-20T20:26:54.143Z,52.61
2018-06-20T20:29:22.197Z,51.60
2018-06-20T20:31:50.189Z,52.23
2018-06-20T20:34:18.263Z,51.34
2018-06-20T20:36:46.250Z,51.98
2018-06-20T20:39:14.387Z,52.03
2018-06-20T20:41:42.460Z,53.06
2018-06-20T20:44:10.461Z,53.58
2018-06-20T20:46:38.609Z,53.64
2018-06-20T20:49:07.177Z,53.61
2018-06-20T20:51:35.174Z,53.70
2018-06-20T20:54:04.137Z,53.76
2018-06-20T20:56:32.136Z,54.08
2018-06-20T20:59:00.212Z,53.09
2018-06-20T21:01:28.391Z,53.84
2018-06-20T21:03:56.828Z,53.57
2018-06-20T21:06:24.809Z,52.42
2018-06-20T21:08:52.814Z,52.38
2018-06-20T21:11:20.844Z,53.19
2018-06-20T21:13:48.899Z,53.40
2018-06-20T21:16:16.908Z,50.88
2018-06-20T21:18:44.842Z,51.60
2018-06-20T21:21:13.446Z,52.31
2018-06-20T21:23:41.506Z,51.94
2018-06-20T21:26:10.387Z,50.64
2018-06-20T21:28:38.742Z,51.15
2018-06-20T21:31:07.411Z,50.40
2018-06-20T21:33:35.462Z,51.13
2018-06-20T21:36:03.498Z,51.81
2018-06-20T21:38:34.309Z,52.38
2018-06-20T21:41:02.230Z,52.55
2018-06-20T21:43:30.895Z,53.98
2018-06-20T21:45:58.903Z,53.22
2018-06-20T21:48:27.819Z,53.85
2018-06-20T21:50:56.331Z,53.53
2018-06-20T21:53:25.481Z,53.19
2018-06-20T21:55:53.689Z,52.96
2018-06-20T21:58:21.832Z,53.35
2018-06-20T22:00:50.636Z,53.25
2018-06-20T22:03:18.804Z,54.20
2018-06-20T22:05:47.327Z,53.94
2018-06-20T22:08:15.420Z,53.95
2018-06-20T22:10:43.458Z,54.33
2018-06-20T22:13:11.520Z,54.44
2018-06-20T22:15:39.601Z,54.27
2018-06-20T22:18:08.769Z,54.26
2018-06-20T22:20:37.436Z,54.99
2018-06-20T22:23:05.974Z,55.05
2018-06-20T22:25:34.116Z,55.07
2018-06-20T22:28:02.706Z,55.13
2018-06-20T22:30:30.670Z,55.72
2018-06-20T22:32:58.752Z,56.10
2018-06-20T22:35:27.452Z,55.59
2018-06-20T22:37:55.502Z,55.74
2018-06-20T22:40:23.516Z,55.42
2018-06-20T22:42:51.519Z,56.14
2018-06-20T22:45:19.549Z,55.81
2018-06-20T22:47:47.688Z,56.47
2018-06-20T22:50:15.824Z,56.52
2018-06-20T22:52:43.804Z,56.64
2018-06-20T22:55:11.799Z,55.99
2018-06-20T22:57:39.808Z,56.38
2018-06-20T23:00:07.873Z,56.36
2018-06-20T23:02:36.609Z,56.69
2018-06-20T23:05:04.713Z,55.87
2018-06-20T23:07:32.668Z,57.15
2018-06-20T23:10:00.671Z,56.28
2018-06-20T23:12:28.682Z,56.90
2018-06-20T23:14:56.805Z,56.66
2018-06-20T23:17:24.829Z,56.77
2018-06-20T23:19:53.268Z,55.57
2018-06-20T23:22:21.238Z,55.96
2018-06-20T23:24:49.306Z,56.51
2018-06-20T23:27:17.315Z,56.83
2018-06-20T23:29:45.240Z,55.93
2018-06-20T23:32:13.211Z,57.00
2018-06-20T23:34:41.800Z,57.02
2018-06-20T23:37:10.139Z,56.16
2018-06-20T23:39:38.123Z,55.48
2018-06-20T23:42:06.167Z,56.39
2018-06-20T23:44:34.039Z,56.38
2018-06-20T23:47:02.003Z,56.53
2018-06-20T23:49:30.010Z,56.32
2018-06-20T23:51:58.274Z,56.26
2018-06-20T23:54:26.221Z,55.83
2018-06-20T23:56:54.237Z,55.82
2018-06-20T23:59:22.843Z,55.50
